Time;durP1;ratioP1;P1;durP2;ratioP2;P2;SDS_P1;SDS_P2;PMS_P1;PMS_P2;Temp;Humidity;BMP_temperature;BMP_pressure;BME280_temperature;BME280_humidity;BME280_pressure;Samples;Min_cycle;Max_cycle;Signal;HPM_P1;HPM_P2
2023/01/02 00:01:46;;;;;;;17.85;11.10;;;;;;;;;;5093852;28;20071;-73
2023/01/02 00:04:32;;;;;;;15.55;9.80;;;;;;;;;;5079106;28;20020;-73
2023/01/02 00:07:18;;;;;;;17.35;9.75;;;;;;;;;;5094390;28;20461;-73
2023/01/02 00:10:03;;;;;;;13.98;9.15;;;;;;;;;;5093123;28;20055;-74
2023/01/02 00:12:49;;;;;;;14.15;8.93;;;;;;;;;;5094399;28;20020;-74
2023/01/02 00:15:35;;;;;;;12.35;9.00;;;;;;;;;;5093774;28;20113;-73
2023/01/02 00:18:20;;;;;;;12.98;8.70;;;;;;;;;;5093323;28;20114;-74
2023/01/02 00:21:06;;;;;;;15.23;9.50;;;;;;;;;;5092963;28;20121;-74
2023/01/02 00:23:52;;;;;;;16.27;9.77;;;;;;;;;;5093683;28;20020;-74
2023/01/02 00:26:37;;;;;;;14.43;9.73;;;;;;;;;;5093723;28;20284;-74
2023/01/02 00:29:23;;;;;;;17.00;9.80;;;;;;;;;;5093395;28;20039;-73
2023/01/02 00:32:08;;;;;;;16.10;10.13;;;;;;;;;;5092726;28;20105;-74
2023/01/02 00:34:54;;;;;;;15.73;9.05;;;;;;;;;;5079252;28;20350;-74
2023/01/02 00:37:39;;;;;;;13.95;9.63;;;;;;;;;;5092881;28;20024;-73
2023/01/02 00:40:25;;;;;;;15.27;9.02;;;;;;;;;;5093578;28;20012;-75
2023/01/02 00:43:10;;;;;;;13.82;9.57;;;;;;;;;;5092463;28;20442;-73
2023/01/02 00:45:56;;;;;;;12.90;8.65;;;;;;;;;;5092863;28;20111;-74
2023/01/02 00:48:42;;;;;;;14.77;9.02;;;;;;;;;;5084010;28;20035;-74
2023/01/02 00:51:27;;;;;;;13.23;9.48;;;;;;;;;;5093867;28;20016;-74
2023/01/02 00:54:13;;;;;;;15.48;9.75;;;;;;;;;;5094285;28;20078;-73
2023/01/02 00:56:58;;;;;;;13.82;8.98;;;;;;;;;;5093524;28;20024;-73
2023/01/02 00:59:44;;;;;;;13.95;9.23;;;;;;;;;;5093368;28;20016;-73
2023/01/02 01:02:30;;;;;;;13.48;9.32;;;;;;;;;;5078651;28;20140;-73
2023/01/02 01:05:15;;;;;;;14.25;8.48;;;;;;;;;;5093038;28;20030;-73
2023/01/02 01:08:01;;;;;;;16.15;8.63;;;;;;;;;;5079180;28;20115;-74
2023/01/02 01:10:46;;;;;;;12.50;8.50;;;;;;;;;;5078632;28;20030;-73
2023/01/02 01:13:32;;;;;;;12.75;8.60;;;;;;;;;;5092737;28;20032;-73
2023/01/02 01:16:18;;;;;;;12.60;8.40;;;;;;;;;;5093064;28;20024;-74
2023/01/02 01:19:04;;;;;;;12.85;8.38;;;;;;;;;;5092426;28;20024;-73
2023/01/02 01:21:49;;;;;;;13.73;8.40;;;;;;;;;;5093111;28;20376;-73
2023/01/02 01:24:35;;;;;;;12.88;8.27;;;;;;;;;;5092907;28;20085;-73
2023/01/02 01:27:20;;;;;;;13.80;8.68;;;;;;;;;;5093117;28;20097;-73
2023/01/02 01:30:06;;;;;;;13.27;8.90;;;;;;;;;;5092837;28;20442;-73
2023/01/02 01:32:52;;;;;;;12.45;8.73;;;;;;;;;;5092943;28;20034;-73
2023/01/02 01:35:37;;;;;;;12.55;7.97;;;;;;;;;;5078127;28;20410;-74
2023/01/02 01:38:23;;;;;;;13.25;8.63;;;;;;;;;;5093103;28;20403;-73
2023/01/02 01:41:10;;;;;;;11.18;7.97;;;;;;;;;;5078584;28;20016;-74
2023/01/02 01:43:57;;;;;;;12.25;7.95;;;;;;;;;;5077485;28;20339;-73
2023/01/02 01:46:44;;;;;;;15.05;9.23;;;;;;;;;;5092987;28;20028;-73
2023/01/02 01:49:29;;;;;;;12.15;8.02;;;;;;;;;;5093314;28;20055;-72
2023/01/02 01:52:17;;;;;;;12.45;8.38;;;;;;;;;;5092379;28;20065;-73
2023/01/02 01:55:25;;;;;;;11.50;8.30;;;;;;;;;;5095095;28;20103;-74
2023/01/02 01:58:13;;;;;;;14.38;8.65;;;;;;;;;;5082852;28;20417;-73
2023/01/02 02:00:59;;;;;;;12.75;8.48;;;;;;;;;;5096399;28;20477;-74
2023/01/02 02:03:47;;;;;;;10.63;7.90;;;;;;;;;;5097010;28;20108;-74
2023/01/02 02:06:32;;;;;;;13.50;8.50;;;;;;;;;;5082280;28;20478;-73
2023/01/02 02:09:21;;;;;;;10.88;8.02;;;;;;;;;;5081549;28;20024;-74
2023/01/02 02:12:07;;;;;;;11.35;7.28;;;;;;;;;;5081468;28;20369;-74
2023/01/02 02:14:53;;;;;;;11.60;7.68;;;;;;;;;;5096005;28;20081;-74
2023/01/02 02:17:38;;;;;;;12.82;7.55;;;;;;;;;;5096239;28;20013;-74
2023/01/02 02:20:24;;;;;;;11.77;7.47;;;;;;;;;;5081267;28;20503;-74
2023/01/02 02:23:21;;;;;;;12.60;7.55;;;;;;;;;;5096412;28;20034;-73
2023/01/02 02:26:07;;;;;;;11.10;7.00;;;;;;;;;;5081301;28;20016;-74
2023/01/02 02:29:03;;;;;;;10.70;7.50;;;;;;;;;;5081592;28;20109;-73
2023/01/02 02:31:54;;;;;;;11.77;7.45;;;;;;;;;;5095584;28;20055;-74
2023/01/02 02:34:55;;;;;;;12.75;8.15;;;;;;;;;;5096209;28;20032;-73
2023/01/02 02:37:43;;;;;;;13.27;7.85;;;;;;;;;;5096341;28;20008;-73
2023/01/02 02:40:38;;;;;;;13.05;8.10;;;;;;;;;;5080971;28;20327;-74
2023/01/02 02:43:26;;;;;;;11.02;7.10;;;;;;;;;;5096067;28;20027;-74
2023/01/02 02:46:35;;;;;;;11.23;7.95;;;;;;;;;;5096245;28;20028;-73
2023/01/02 02:49:43;;;;;;;14.20;7.90;;;;;;;;;;5095913;28;20412;-73
2023/01/02 02:52:38;;;;;;;11.68;7.80;;;;;;;;;;5094917;28;20028;-73
2023/01/02 02:55:26;;;;;;;11.48;7.10;;;;;;;;;;5095268;28;20020;-74
2023/01/02 02:58:13;;;;;;;11.55;8.07;;;;;;;;;;5095507;28;20084;-74
2023/01/02 03:01:00;;;;;;;11.68;7.55;;;;;;;;;;5095311;28;20123;-74
2023/01/02 03:03:46;;;;;;;11.38;7.68;;;;;;;;;;5095497;28;20107;-73
2023/01/02 03:06:42;;;;;;;11.13;7.45;;;;;;;;;;5079916;28;20020;-74
2023/01/02 03:09:42;;;;;;;10.10;7.22;;;;;;;;;;5095003;28;20449;-74
2023/01/02 03:12:46;;;;;;;11.63;7.40;;;;;;;;;;5095010;28;20020;-74
2023/01/02 03:15:41;;;;;;;11.68;6.90;;;;;;;;;;5095557;28;20032;-73
2023/01/02 03:18:32;;;;;;;10.30;6.97;;;;;;;;;;5080353;28;20053;-73
2023/01/02 03:21:34;;;;;;;10.27;6.80;;;;;;;;;;5080487;28;20113;-74
2023/01/02 03:24:21;;;;;;;10.80;7.60;;;;;;;;;;5094790;28;20020;-74
2023/01/02 03:27:09;;;;;;;12.77;7.47;;;;;;;;;;5081766;28;20057;-74
2023/01/02 03:29:55;;;;;;;10.88;7.53;;;;;;;;;;5097244;28;20024;-74
2023/01/02 03:32:43;;;;;;;9.77;7.05;;;;;;;;;;5079657;28;20016;-74
2023/01/02 03:35:36;;;;;;;11.00;7.18;;;;;;;;;;5097057;28;20412;-73
2023/01/02 03:38:27;;;;;;;10.88;7.25;;;;;;;;;;5098656;28;20023;-75
2023/01/02 03:41:34;;;;;;;11.43;7.60;;;;;;;;;;5110178;28;20089;-74
2023/01/02 03:44:25;;;;;;;10.55;7.50;;;;;;;;;;5095880;28;20470;-75
2023/01/02 03:47:19;;;;;;;12.70;7.50;;;;;;;;;;5107389;28;20023;-74
2023/01/02 03:50:11;;;;;;;12.35;8.27;;;;;;;;;;5080676;28;20074;-73
2023/01/02 03:52:56;;;;;;;11.40;7.45;;;;;;;;;;5098286;28;20020;-73
2023/01/02 03:55:48;;;;;;;11.20;7.88;;;;;;;;;;5104349;28;20022;-73
2023/01/02 03:58:55;;;;;;;11.48;7.57;;;;;;;;;;5082623;28;20059;-75
2023/01/02 04:01:48;;;;;;;11.40;7.93;;;;;;;;;;5095324;28;20040;-76
2023/01/02 04:04:50;;;;;;;12.13;7.60;;;;;;;;;;5095948;28;20118;-75
2023/01/02 04:07:45;;;;;;;10.35;7.45;;;;;;;;;;5094603;28;20535;-74
2023/01/02 04:10:33;;;;;;;12.15;8.27;;;;;;;;;;5094680;28;20124;-74
2023/01/02 04:13:31;;;;;;;11.70;8.20;;;;;;;;;;5105334;28;20028;-73
2023/01/02 04:16:19;;;;;;;13.02;8.43;;;;;;;;;;5100667;28;20090;-73
2023/01/02 04:19:12;;;;;;;12.65;8.13;;;;;;;;;;5095807;28;20023;-73
2023/01/02 04:21:59;;;;;;;14.20;8.60;;;;;;;;;;5094343;28;20016;-74
2023/01/02 04:24:48;;;;;;;14.63;8.88;;;;;;;;;;5078592;28;20028;-74
2023/01/02 04:27:39;;;;;;;13.40;9.18;;;;;;;;;;5093812;28;20103;-74
2023/01/02 04:30:27;;;;;;;14.02;9.00;;;;;;;;;;5093867;28;20468;-74
2023/01/02 04:33:13;;;;;;;12.95;8.75;;;;;;;;;;5093627;28;20031;-74
2023/01/02 04:36:05;;;;;;;13.38;9.55;;;;;;;;;;5093947;28;20043;-74
2023/01/02 04:38:51;;;;;;;13.00;8.98;;;;;;;;;;5093580;28;20094;-74
2023/01/02 04:41:37;;;;;;;16.83;9.65;;;;;;;;;;5078872;28;20430;-73
2023/01/02 04:44:23;;;;;;;15.55;10.45;;;;;;;;;;5094508;28;20032;-73
2023/01/02 04:47:08;;;;;;;14.85;10.10;;;;;;;;;;5095073;28;20047;-73
2023/01/02 04:49:54;;;;;;;14.60;9.60;;;;;;;;;;5108845;28;20028;-72
2023/01/02 04:52:40;;;;;;;16.50;10.38;;;;;;;;;;5100791;28;20086;-74
2023/01/02 04:55:25;;;;;;;15.75;10.23;;;;;;;;;;5080277;28;20087;-73
2023/01/02 04:58:11;;;;;;;17.10;10.45;;;;;;;;;;5102818;28;20137;-73
2023/01/02 05:00:56;;;;;;;17.02;10.68;;;;;;;;;;5096539;28;20043;-72
2023/01/02 05:03:44;;;;;;;16.75;10.77;;;;;;;;;;5093485;28;20442;-74
2023/01/02 05:06:31;;;;;;;15.50;10.88;;;;;;;;;;5092855;28;20066;-73
2023/01/02 05:09:16;;;;;;;16.65;10.60;;;;;;;;;;5078147;28;20429;-73
2023/01/02 05:12:02;;;;;;;17.65;10.43;;;;;;;;;;5092873;28;20368;-73
2023/01/02 05:14:47;;;;;;;15.52;10.10;;;;;;;;;;5093086;28;20085;-72
2023/01/02 05:17:34;;;;;;;16.35;11.05;;;;;;;;;;5092047;28;20016;-73
2023/01/02 05:20:19;;;;;;;16.90;10.45;;;;;;;;;;5092896;28;20177;-73
2023/01/02 05:26:10;;;;;;;16.80;10.88;;;;;;;;;;5093161;28;20035;-73
2023/01/02 05:28:56;;;;;;;18.65;11.57;;;;;;;;;;5094179;28;20430;-73
2023/01/02 05:31:41;;;;;;;21.02;11.85;;;;;;;;;;5096560;28;20020;-74
2023/01/02 05:34:27;;;;;;;20.52;11.98;;;;;;;;;;5082470;28;20016;-73
2023/01/02 05:37:12;;;;;;;20.35;11.52;;;;;;;;;;5097617;28;20461;-73
2023/01/02 05:39:58;;;;;;;18.35;11.93;;;;;;;;;;5096912;28;20089;-73
2023/01/02 05:42:43;;;;;;;19.98;11.68;;;;;;;;;;5095550;28;20210;-73
2023/01/02 05:45:29;;;;;;;21.38;11.68;;;;;;;;;;5096681;28;20012;-72
2023/01/02 05:48:15;;;;;;;21.50;12.45;;;;;;;;;;5096869;28;20036;-73
2023/01/02 05:51:01;;;;;;;19.27;11.95;;;;;;;;;;5096220;28;20063;-74
2023/01/02 05:53:47;;;;;;;19.80;12.65;;;;;;;;;;5075858;28;20495;-74
2023/01/02 05:56:32;;;;;;;25.10;14.27;;;;;;;;;;5095730;28;20111;-74
2023/01/02 05:59:18;;;;;;;25.35;14.68;;;;;;;;;;5097079;28;20024;-73
2023/01/02 06:02:03;;;;;;;21.45;13.73;;;;;;;;;;5094900;28;20068;-74
2023/01/02 06:04:49;;;;;;;21.27;13.38;;;;;;;;;;5095780;28;20020;-73
2023/01/02 06:07:34;;;;;;;21.05;13.48;;;;;;;;;;5081788;28;20032;-74
2023/01/02 06:10:20;;;;;;;20.70;13.30;;;;;;;;;;5095907;28;20031;-73
2023/01/02 06:13:06;;;;;;;25.40;14.05;;;;;;;;;;5096406;28;20028;-73
2023/01/02 06:15:53;;;;;;;28.02;16.13;;;;;;;;;;5096218;28;20047;-73
2023/01/02 06:18:38;;;;;;;27.88;16.08;;;;;;;;;;5081991;28;20020;-74
2023/01/02 06:21:24;;;;;;;25.63;16.08;;;;;;;;;;5081819;28;20027;-72
2023/01/02 06:24:10;;;;;;;29.50;17.77;;;;;;;;;;5095331;28;20080;-73
2023/01/02 06:26:55;;;;;;;31.10;18.13;;;;;;;;;;5095304;28;20016;-74
2023/01/02 06:29:41;;;;;;;31.42;17.88;;;;;;;;;;5082064;28;20444;-73
2023/01/02 06:32:26;;;;;;;28.95;17.13;;;;;;;;;;5095634;28;20111;-73
2023/01/02 06:35:12;;;;;;;27.73;17.40;;;;;;;;;;5094921;28;20023;-74
2023/01/02 06:37:58;;;;;;;29.77;17.60;;;;;;;;;;5095450;28;20016;-74
2023/01/02 06:40:50;;;;;;;27.40;16.40;;;;;;;;;;5093300;28;20016;-74
2023/01/02 06:43:40;;;;;;;26.55;16.52;;;;;;;;;;5096027;28;20024;-74
2023/01/02 06:46:26;;;;;;;27.38;15.77;;;;;;;;;;5081404;28;20058;-74
2023/01/02 06:49:11;;;;;;;25.40;15.88;;;;;;;;;;5094625;28;20035;-73
2023/01/02 06:51:57;;;;;;;27.92;15.13;;;;;;;;;;5080412;28;20023;-74
2023/01/02 06:54:43;;;;;;;25.40;15.70;;;;;;;;;;5081483;28;20020;-73
2023/01/02 06:57:29;;;;;;;29.00;16.13;;;;;;;;;;5095555;28;20099;-75
2023/01/02 07:00:15;;;;;;;24.02;14.63;;;;;;;;;;5080209;28;20393;-74
2023/01/02 07:03:00;;;;;;;25.48;15.73;;;;;;;;;;5094276;28;20027;-73
2023/01/02 07:05:46;;;;;;;24.50;14.50;;;;;;;;;;5080838;28;20077;-73
2023/01/02 07:08:32;;;;;;;22.13;14.23;;;;;;;;;;5094187;28;20024;-73
2023/01/02 07:11:19;;;;;;;22.48;14.60;;;;;;;;;;5080200;28;20020;-74
2023/01/02 07:14:05;;;;;;;21.98;14.43;;;;;;;;;;5094162;28;20438;-74
2023/01/02 07:16:50;;;;;;;20.50;13.35;;;;;;;;;;5094812;28;20107;-74
2023/01/02 07:19:36;;;;;;;21.98;12.77;;;;;;;;;;5093700;28;20358;-73
2023/01/02 07:22:21;;;;;;;17.17;11.75;;;;;;;;;;5094366;28;20110;-74
2023/01/02 07:25:07;;;;;;;20.45;12.32;;;;;;;;;;5094103;28;20016;-73
2023/01/02 07:27:53;;;;;;;18.70;11.88;;;;;;;;;;5080325;28;20099;-74
2023/01/02 07:30:38;;;;;;;22.90;13.05;;;;;;;;;;5093618;28;20024;-73
2023/01/02 07:33:24;;;;;;;21.45;12.68;;;;;;;;;;5093266;28;20030;-74
2023/01/02 07:36:12;;;;;;;21.48;13.73;;;;;;;;;;5093462;28;20046;-74
2023/01/02 07:38:58;;;;;;;21.60;14.10;;;;;;;;;;5094750;28;20012;-74
2023/01/02 07:41:44;;;;;;;20.73;13.52;;;;;;;;;;5080748;28;20117;-73
2023/01/02 07:44:29;;;;;;;27.05;13.55;;;;;;;;;;5093714;28;20457;-73
2023/01/02 07:47:15;;;;;;;18.88;12.57;;;;;;;;;;5093305;28;20442;-74
2023/01/02 07:50:00;;;;;;;20.92;12.90;;;;;;;;;;5093540;28;20106;-74
2023/01/02 07:52:46;;;;;;;18.02;12.02;;;;;;;;;;5092408;28;20020;-74
2023/01/02 07:55:32;;;;;;;31.50;14.02;;;;;;;;;;5094263;28;20345;-73
2023/01/02 07:58:17;;;;;;;22.30;13.63;;;;;;;;;;5094795;28;20450;-74
2023/01/02 08:01:07;;;;;;;22.30;13.38;;;;;;;;;;5092673;28;20082;-74
2023/01/02 08:03:52;;;;;;;25.48;16.38;;;;;;;;;;5093556;28;20080;-73
2023/01/02 08:06:40;;;;;;;20.83;13.60;;;;;;;;;;5093296;28;20011;-74
2023/01/02 08:09:25;;;;;;;25.90;15.65;;;;;;;;;;5093699;28;20024;-73
2023/01/02 08:12:11;;;;;;;26.15;16.42;;;;;;;;;;5092708;28;20016;-73
2023/01/02 08:14:56;;;;;;;33.40;20.15;;;;;;;;;;5093751;28;20012;-74
2023/01/02 08:17:42;;;;;;;26.83;17.00;;;;;;;;;;5078768;28;20043;-73
2023/01/02 08:20:27;;;;;;;21.80;15.27;;;;;;;;;;5093700;28;20050;-73
2023/01/02 08:23:13;;;;;;;30.77;16.98;;;;;;;;;;5093500;28;20035;-74
2023/01/02 08:25:59;;;;;;;29.23;17.70;;;;;;;;;;5092665;28;20103;-74
2023/01/02 08:28:45;;;;;;;22.85;15.50;;;;;;;;;;5079171;28;20059;-74
2023/01/02 08:31:30;;;;;;;23.15;13.77;;;;;;;;;;5094097;28;20027;-75
2023/01/02 08:34:16;;;;;;;19.63;13.20;;;;;;;;;;5092597;28;20350;-74
2023/01/02 08:37:02;;;;;;;18.70;11.73;;;;;;;;;;5079182;28;20353;-74
2023/01/02 08:39:47;;;;;;;18.85;12.10;;;;;;;;;;5093508;28;20477;-74
2023/01/02 08:42:33;;;;;;;17.73;11.40;;;;;;;;;;5093716;28;20028;-74
2023/01/02 08:45:18;;;;;;;14.85;10.82;;;;;;;;;;5093838;28;20107;-74
2023/01/02 08:48:04;;;;;;;16.48;11.48;;;;;;;;;;5092655;28;20062;-74
2023/01/02 08:50:49;;;;;;;14.10;10.02;;;;;;;;;;5093004;28;20016;-74
2023/01/02 08:53:35;;;;;;;15.63;9.90;;;;;;;;;;5093254;28;20031;-74
2023/01/02 08:56:31;;;;;;;15.68;9.93;;;;;;;;;;5094936;28;20095;-73
2023/01/02 08:59:17;;;;;;;15.50;9.25;;;;;;;;;;5078418;28;20016;-74
2023/01/02 09:02:02;;;;;;;15.75;9.65;;;;;;;;;;5078636;28;20068;-74
2023/01/02 09:04:48;;;;;;;15.95;10.20;;;;;;;;;;5091849;28;20445;-74
2023/01/02 09:07:33;;;;;;;14.48;9.52;;;;;;;;;;5079012;28;20119;-74
2023/01/02 09:10:19;;;;;;;14.95;10.40;;;;;;;;;;5092644;28;20387;-73
2023/01/02 09:13:05;;;;;;;17.20;11.18;;;;;;;;;;5092993;28;20035;-74
2023/01/02 09:15:51;;;;;;;15.18;9.73;;;;;;;;;;5078660;28;20020;-74
2023/01/02 09:18:37;;;;;;;15.38;9.18;;;;;;;;;;5079099;28;20058;-74
2023/01/02 09:21:25;;;;;;;12.35;8.57;;;;;;;;;;5079102;28;20012;-74
2023/01/02 09:24:11;;;;;;;10.75;7.85;;;;;;;;;;5093264;28;20024;-74
2023/01/02 09:26:56;;;;;;;13.20;8.00;;;;;;;;;;5093552;28;20398;-74
2023/01/02 09:29:42;;;;;;;10.40;7.80;;;;;;;;;;5093333;28;20035;-74
2023/01/02 09:32:27;;;;;;;12.02;7.78;;;;;;;;;;5092503;28;20112;-73
2023/01/02 09:35:13;;;;;;;13.82;8.25;;;;;;;;;;5093560;28;20018;-74
2023/01/02 09:37:59;;;;;;;9.65;7.03;;;;;;;;;;5093165;28;20323;-74
2023/01/02 09:40:47;;;;;;;12.50;8.15;;;;;;;;;;5093129;28;20053;-74
2023/01/02 09:43:34;;;;;;;11.95;7.32;;;;;;;;;;5093656;28;20035;-73
2023/01/02 09:46:20;;;;;;;10.10;7.05;;;;;;;;;;5078751;28;20024;-74
2023/01/02 09:49:09;;;;;;;11.10;6.90;;;;;;;;;;5077678;28;20031;-73
2023/01/02 09:51:54;;;;;;;12.25;7.28;;;;;;;;;;5077884;28;20028;-73
2023/01/02 09:54:40;;;;;;;11.55;6.97;;;;;;;;;;5079155;28;20350;-74
2023/01/02 09:57:26;;;;;;;10.05;7.00;;;;;;;;;;5093041;28;20070;-74
2023/01/02 10:00:15;;;;;;;8.73;6.35;;;;;;;;;;5092831;28;20049;-74
2023/01/02 10:03:00;;;;;;;8.75;6.47;;;;;;;;;;5092699;28;20097;-75
2023/01/02 10:06:05;;;;;;;8.63;6.20;;;;;;;;;;5093934;28;20034;-73
2023/01/02 10:09:02;;;;;;;9.23;6.40;;;;;;;;;;5078575;28;20039;-74
2023/01/02 10:11:55;;;;;;;11.60;6.53;;;;;;;;;;5093439;28;20021;-73
2023/01/02 10:14:44;;;;;;;10.82;7.10;;;;;;;;;;5107976;28;20028;-73
2023/01/02 10:17:33;;;;;;;10.48;7.15;;;;;;;;;;5106979;28;20418;-74
2023/01/02 10:20:26;;;;;;;9.93;6.88;;;;;;;;;;5105074;28;20008;-72
2023/01/02 10:23:17;;;;;;;10.85;7.35;;;;;;;;;;5112044;28;20031;-73
2023/01/02 10:26:04;;;;;;;12.25;8.32;;;;;;;;;;5095937;28;20020;-72
2023/01/02 10:29:01;;;;;;;10.57;8.02;;;;;;;;;;5096879;28;20330;-74
2023/01/02 10:31:46;;;;;;;12.13;8.57;;;;;;;;;;5082101;28;20028;-74
2023/01/02 10:34:44;;;;;;;12.15;8.57;;;;;;;;;;5107263;28;20051;-73
2023/01/02 10:37:30;;;;;;;17.50;10.10;;;;;;;;;;5097095;28;20022;-73
2023/01/02 10:40:16;;;;;;;16.55;10.65;;;;;;;;;;5095716;28;20027;-74
2023/01/02 10:43:02;;;;;;;17.80;11.02;;;;;;;;;;5095900;28;20016;-73
2023/01/02 10:45:47;;;;;;;16.65;11.60;;;;;;;;;;5095561;28;20035;-73
2023/01/02 10:48:35;;;;;;;16.40;11.10;;;;;;;;;;5081724;28;20028;-75
2023/01/02 10:51:21;;;;;;;18.55;12.05;;;;;;;;;;5081918;28;20068;-73
2023/01/02 10:54:08;;;;;;;20.27;12.07;;;;;;;;;;5096016;28;20095;-74
2023/01/02 10:56:54;;;;;;;21.63;13.13;;;;;;;;;;5098479;28;20024;-74
2023/01/02 10:59:42;;;;;;;21.88;12.73;;;;;;;;;;5103585;28;20085;-74
2023/01/02 11:02:30;;;;;;;19.13;12.35;;;;;;;;;;5095025;28;20036;-74
2023/01/02 11:05:29;;;;;;;19.60;12.70;;;;;;;;;;5094672;28;20027;-75
2023/01/02 11:08:16;;;;;;;20.42;11.63;;;;;;;;;;5095528;28;20346;-74
2023/01/02 11:11:11;;;;;;;19.20;10.30;;;;;;;;;;5080706;28;20013;-75
2023/01/02 11:14:04;;;;;;;13.10;9.15;;;;;;;;;;5080708;28;20101;-74
2023/01/02 11:16:50;;;;;;;13.68;8.32;;;;;;;;;;5095376;28;20016;-73
2023/01/02 11:19:40;;;;;;;14.15;7.63;;;;;;;;;;5095349;28;20016;-74
2023/01/02 11:22:34;;;;;;;12.57;7.32;;;;;;;;;;5094572;28;20016;-74
2023/01/02 11:25:24;;;;;;;11.30;7.65;;;;;;;;;;5095612;28;20020;-75
2023/01/02 11:28:15;;;;;;;14.80;7.28;;;;;;;;;;5094432;28;20016;-75
2023/01/02 11:31:03;;;;;;;17.05;9.65;;;;;;;;;;5095612;28;20093;-73
2023/01/02 11:33:49;;;;;;;16.00;9.18;;;;;;;;;;5094931;28;20038;-74
2023/01/02 11:36:35;;;;;;;11.98;7.30;;;;;;;;;;5095083;28;20016;-74
2023/01/02 11:39:21;;;;;;;15.10;8.15;;;;;;;;;;5094913;28;20016;-74
2023/01/02 11:45:16;;;;;;;19.38;11.60;;;;;;;;;;5096186;28;20039;-75
2023/01/02 11:48:03;;;;;;;24.90;13.32;;;;;;;;;;5095899;28;20051;-74
2023/01/02 11:50:49;;;;;;;12.07;7.78;;;;;;;;;;5094644;28;20057;-72
2023/01/02 11:53:39;;;;;;;21.63;12.57;;;;;;;;;;5094483;28;20039;-75
2023/01/02 11:56:31;;;;;;;12.07;7.55;;;;;;;;;;5094307;28;20501;-74
2023/01/02 11:59:20;;;;;;;11.07;7.20;;;;;;;;;;5094566;28;20059;-73
2023/01/02 12:02:14;;;;;;;12.40;7.75;;;;;;;;;;5093606;28;20044;-73
2023/01/02 12:05:00;;;;;;;14.95;8.82;;;;;;;;;;5094750;28;20028;-74
2023/01/02 12:07:49;;;;;;;46.33;23.25;;;;;;;;;;5093782;28;20028;-73
2023/01/02 12:10:41;;;;;;;13.05;7.78;;;;;;;;;;5095698;28;20114;-75
2023/01/02 12:13:27;;;;;;;26.70;14.20;;;;;;;;;;5094561;28;20020;-74
2023/01/02 12:16:15;;;;;;;15.40;8.23;;;;;;;;;;5093490;28;20074;-75
2023/01/02 12:19:13;;;;;;;13.85;7.53;;;;;;;;;;5095033;28;20051;-74
2023/01/02 12:22:05;;;;;;;13.70;7.63;;;;;;;;;;5093555;28;20090;-74
2023/01/02 12:24:51;;;;;;;11.73;7.80;;;;;;;;;;5094200;28;20408;-74
2023/01/02 12:27:40;;;;;;;12.43;8.25;;;;;;;;;;5079207;28;20023;-74
2023/01/02 12:30:27;;;;;;;10.98;7.97;;;;;;;;;;5095058;28;20020;-74
2023/01/02 12:33:31;;;;;;;12.57;8.30;;;;;;;;;;5094412;28;20469;-75
2023/01/02 12:36:38;;;;;;;15.40;8.90;;;;;;;;;;5094357;28;20415;-74
2023/01/02 12:39:37;;;;;;;13.70;8.85;;;;;;;;;;5079681;28;20034;-75
2023/01/02 12:42:29;;;;;;;11.27;8.23;;;;;;;;;;5079477;28;20420;-74
2023/01/02 12:45:25;;;;;;;13.30;8.70;;;;;;;;;;5093597;28;20023;-74
2023/01/02 12:48:11;;;;;;;13.57;8.25;;;;;;;;;;5094021;28;20085;-75
2023/01/02 12:51:07;;;;;;;14.38;8.38;;;;;;;;;;5094057;28;20028;-74
2023/01/02 12:54:22;;;;;;;15.27;7.95;;;;;;;;;;5079150;28;20039;-75
2023/01/02 12:57:08;;;;;;;13.35;8.27;;;;;;;;;;5086480;28;20024;-75
2023/01/02 13:00:12;;;;;;;15.45;8.10;;;;;;;;;;5093877;28;20034;-74
2023/01/02 13:02:58;;;;;;;15.50;8.57;;;;;;;;;;5094550;28;20353;-75
2023/01/02 13:05:50;;;;;;;11.63;7.90;;;;;;;;;;5094088;28;20111;-76
2023/01/02 13:08:47;;;;;;;13.27;8.48;;;;;;;;;;5079266;28;20081;-75
2023/01/02 13:11:40;;;;;;;12.20;7.90;;;;;;;;;;5095551;28;20463;-75
2023/01/02 13:14:31;;;;;;;13.77;8.52;;;;;;;;;;5093958;28;20054;-75
2023/01/02 13:17:26;;;;;;;17.50;9.13;;;;;;;;;;5093405;28;20358;-74
2023/01/02 13:20:32;;;;;;;13.40;9.05;;;;;;;;;;5093713;28;20024;-75
2023/01/02 13:23:38;;;;;;;13.88;9.23;;;;;;;;;;5093628;28;20082;-75
2023/01/02 13:26:25;;;;;;;13.45;9.30;;;;;;;;;;5078224;28;20107;-74
2023/01/02 13:29:11;;;;;;;16.45;9.30;;;;;;;;;;5078536;28;20342;-74
2023/01/02 13:31:56;;;;;;;15.45;8.98;;;;;;;;;;5093872;28;20016;-74
2023/01/02 13:34:50;;;;;;;16.83;9.02;;;;;;;;;;5092683;28;20066;-75
2023/01/02 13:37:36;;;;;;;14.38;9.07;;;;;;;;;;5093418;28;20016;-73
2023/01/02 13:40:26;;;;;;;13.60;9.25;;;;;;;;;;5093415;28;20024;-75
2023/01/02 13:43:16;;;;;;;12.30;9.20;;;;;;;;;;5093247;28;20019;-74
2023/01/02 13:46:02;;;;;;;16.67;8.95;;;;;;;;;;5094306;28;20454;-75
2023/01/02 13:48:50;;;;;;;14.27;9.15;;;;;;;;;;5093225;28;20053;-75
2023/01/02 13:51:36;;;;;;;15.38;10.05;;;;;;;;;;5081794;28;20020;-75
2023/01/02 13:54:33;;;;;;;13.68;9.05;;;;;;;;;;5096492;28;20388;-75
2023/01/02 13:57:27;;;;;;;15.13;8.88;;;;;;;;;;5097639;28;20398;-74
2023/01/02 14:00:15;;;;;;;14.70;9.02;;;;;;;;;;5096998;28;20020;-74
2023/01/02 14:03:19;;;;;;;15.05;8.85;;;;;;;;;;5097157;28;20028;-75
2023/01/02 14:06:25;;;;;;;14.25;8.90;;;;;;;;;;5102941;28;20028;-75
2023/01/02 14:09:12;;;;;;;13.75;8.80;;;;;;;;;;5108758;28;20039;-73
2023/01/02 14:11:59;;;;;;;14.80;9.10;;;;;;;;;;5095224;28;20099;-74
2023/01/02 14:14:47;;;;;;;16.35;9.07;;;;;;;;;;5096874;28;20446;-74
2023/01/02 14:17:51;;;;;;;13.02;9.43;;;;;;;;;;5096337;28;20016;-73
2023/01/02 14:20:41;;;;;;;16.98;9.77;;;;;;;;;;5096568;28;20016;-73
2023/01/02 14:23:28;;;;;;;18.75;10.55;;;;;;;;;;5096828;28;20028;-74
2023/01/02 14:26:27;;;;;;;14.45;9.57;;;;;;;;;;5098711;28;20444;-73
2023/01/02 14:29:16;;;;;;;14.57;9.07;;;;;;;;;;5096806;28;20481;-75
2023/01/02 14:32:03;;;;;;;14.60;9.20;;;;;;;;;;5096843;28;20016;-73
2023/01/02 14:34:52;;;;;;;15.52;10.30;;;;;;;;;;5082273;28;20116;-76
2023/01/02 14:37:43;;;;;;;16.08;9.60;;;;;;;;;;5083791;28;20107;-75
2023/01/02 14:40:29;;;;;;;15.95;9.95;;;;;;;;;;5096564;28;20012;-75
2023/01/02 14:43:30;;;;;;;14.10;10.23;;;;;;;;;;5116928;28;20048;-74
2023/01/02 14:46:21;;;;;;;15.60;10.15;;;;;;;;;;5081254;28;20016;-74
2023/01/02 14:49:10;;;;;;;20.98;10.45;;;;;;;;;;5095033;28;20032;-74
2023/01/02 14:52:01;;;;;;;17.67;10.60;;;;;;;;;;5067362;28;20036;-74
2023/01/02 14:54:52;;;;;;;14.02;9.93;;;;;;;;;;5097893;28;20035;-73
2023/01/02 14:57:38;;;;;;;17.25;10.77;;;;;;;;;;5086054;28;20051;-74
2023/01/02 15:00:30;;;;;;;17.17;10.93;;;;;;;;;;5094991;28;20350;-75
2023/01/02 15:03:27;;;;;;;16.17;10.30;;;;;;;;;;5095140;28;20407;-75
2023/01/02 15:06:15;;;;;;;17.83;10.40;;;;;;;;;;5095936;28;20031;-75
2023/01/02 15:09:03;;;;;;;17.30;10.15;;;;;;;;;;5097317;28;20445;-73
2023/01/02 15:15:01;;;;;;;15.93;10.60;;;;;;;;;;5094991;28;20118;-75
2023/01/02 15:17:47;;;;;;;17.95;11.30;;;;;;;;;;5094580;28;20350;-74
2023/01/02 15:20:33;;;;;;;17.90;11.82;;;;;;;;;;5079593;28;20081;-74
2023/01/02 15:23:23;;;;;;;20.55;12.25;;;;;;;;;;5094402;28;20024;-74
2023/01/02 15:26:44;;;;;;;20.40;11.68;;;;;;;;;;5095291;28;20031;-74
2023/01/02 15:29:29;;;;;;;26.10;14.50;;;;;;;;;;4980780;28;20045;-74
2023/01/02 15:32:17;;;;;;;28.08;18.13;;;;;;;;;;5090734;28;20024;-74
2023/01/02 15:35:18;;;;;;;29.73;18.90;;;;;;;;;;5081902;28;20102;-74
2023/01/02 15:38:17;;;;;;;33.20;18.23;;;;;;;;;;5095041;28;20498;-74
2023/01/02 15:41:03;;;;;;;30.10;18.55;;;;;;;;;;5094251;28;20350;-74
2023/01/02 15:46:55;;;;;;;39.00;24.58;;;;;;;;;;5094331;28;20020;-74
2023/01/02 15:49:42;;;;;;;38.35;22.88;;;;;;;;;;5094198;28;20047;-74
2023/01/02 15:52:29;;;;;;;31.70;20.83;;;;;;;;;;5079510;28;20020;-75
2023/01/02 15:55:16;;;;;;;35.05;22.90;;;;;;;;;;5079822;28;20464;-75
2023/01/02 15:58:14;;;;;;;71.65;36.45;;;;;;;;;;5080533;28;20446;-74
2023/01/02 16:01:14;;;;;;;59.75;34.17;;;;;;;;;;5093831;28;20062;-74
2023/01/02 16:04:04;;;;;;;56.28;35.15;;;;;;;;;;5079705;28;20028;-73
2023/01/02 16:06:50;;;;;;;70.13;38.97;;;;;;;;;;5094878;28;20350;-75
2023/01/02 16:09:35;;;;;;;68.68;40.00;;;;;;;;;;5079163;28;20139;-74
2023/01/02 16:12:22;;;;;;;75.05;42.58;;;;;;;;;;5093699;28;20055;-74
2023/01/02 16:15:08;;;;;;;80.88;46.92;;;;;;;;;;5094204;28;20036;-73
2023/01/02 16:17:54;;;;;;;90.22;51.95;;;;;;;;;;5093930;28;20103;-73
2023/01/02 16:20:40;;;;;;;103.60;59.05;;;;;;;;;;5079723;28;20458;-74
2023/01/02 16:23:26;;;;;;;97.20;57.92;;;;;;;;;;5094161;28;20024;-75
2023/01/02 16:26:12;;;;;;;91.70;55.60;;;;;;;;;;5093429;28;20019;-75
2023/01/02 16:28:58;;;;;;;97.90;57.03;;;;;;;;;;5094067;28;20024;-73
2023/01/02 16:32:13;;;;;;;105.13;61.17;;;;;;;;;;5093461;28;20023;-73
2023/01/02 16:35:18;;;;;;;105.65;61.78;;;;;;;;;;5093897;28;20051;-74
2023/01/02 16:38:05;;;;;;;113.30;65.68;;;;;;;;;;5093749;28;20412;-72
2023/01/02 16:40:57;;;;;;;113.10;66.13;;;;;;;;;;5079595;28;20031;-73
2023/01/02 16:43:44;;;;;;;115.65;66.57;;;;;;;;;;5079215;28;20354;-74